Time;durP1;ratioP1;P1;durP2;ratioP2;P2;SDS_P1;SDS_P2;PMS_P1;PMS_P2;Temp;Humidity;BMP_temperature;BMP_pressure;BME280_temperature;BME280_humidity;BME280_pressure;Samples;Min_cycle;Max_cycle;Signal;HPM_P1;HPM_P2
2021/01/26 00:02:24;;;;;;;25.67;14.37;;;;;;;;;;5052870;28;20191;-87
2021/01/26 00:04:50;;;;;;;18.93;12.50;;;;;;;;;;5052618;28;20259;-87
2021/01/26 00:07:15;;;;;;;23.10;12.07;;;;;;;;;;5052690;28;20170;-87
2021/01/26 00:09:40;;;;;;;19.57;12.77;;;;;;;;;;5052641;28;20202;-87
2021/01/26 00:12:08;;;;;;;19.43;11.93;;;;;;;;;;5052435;28;20523;-86
2021/01/26 00:14:33;;;;;;;21.50;12.87;;;;;;;;;;5052639;28;20168;-86
2021/01/26 00:16:59;;;;;;;20.37;12.27;;;;;;;;;;5052653;28;20700;-87
2021/01/26 00:19:24;;;;;;;18.27;12.33;;;;;;;;;;5052275;28;20196;-87
2021/01/26 00:21:49;;;;;;;20.00;12.27;;;;;;;;;;5018042;28;20175;-87
2021/01/26 00:24:15;;;;;;;20.93;13.43;;;;;;;;;;5030961;28;20228;-87
2021/01/26 00:26:40;;;;;;;17.80;12.03;;;;;;;;;;5032842;28;20169;-87
2021/01/26 00:29:09;;;;;;;18.57;12.20;;;;;;;;;;5032121;28;20176;-87
2021/01/26 00:31:35;;;;;;;18.60;12.53;;;;;;;;;;5032964;28;20172;-87
2021/01/26 00:34:01;;;;;;;17.97;12.00;;;;;;;;;;5030896;28;20526;-87
2021/01/26 00:36:27;;;;;;;19.23;11.83;;;;;;;;;;5032480;28;20169;-87
2021/01/26 00:38:52;;;;;;;22.33;12.60;;;;;;;;;;5031157;28;20215;-87
2021/01/26 00:41:18;;;;;;;22.63;13.50;;;;;;;;;;5032044;28;20169;-86
2021/01/26 00:43:43;;;;;;;19.57;12.87;;;;;;;;;;5032284;28;20203;-86
2021/01/26 00:46:08;;;;;;;21.53;13.00;;;;;;;;;;5030813;28;20215;-86
2021/01/26 00:48:34;;;;;;;19.03;12.23;;;;;;;;;;5032004;28;21088;-87
2021/01/26 00:50:59;;;;;;;18.67;12.40;;;;;;;;;;5031657;28;20547;-86
2021/01/26 00:53:24;;;;;;;19.83;12.37;;;;;;;;;;5030975;28;20629;-87
2021/01/26 00:55:50;;;;;;;18.40;12.23;;;;;;;;;;5030278;28;20177;-87
2021/01/26 00:58:15;;;;;;;21.83;13.13;;;;;;;;;;5032147;28;20173;-86
2021/01/26 01:00:41;;;;;;;20.23;13.27;;;;;;;;;;5032050;28;20211;-87
2021/01/26 01:03:06;;;;;;;18.60;12.20;;;;;;;;;;5032316;28;20204;-86
2021/01/26 01:05:32;;;;;;;20.73;12.83;;;;;;;;;;5031995;28;20200;-87
2021/01/26 01:07:57;;;;;;;17.77;12.57;;;;;;;;;;5032191;28;20176;-87
2021/01/26 01:10:27;;;;;;;21.53;12.37;;;;;;;;;;5031861;28;20275;-87
2021/01/26 01:12:53;;;;;;;23.03;12.60;;;;;;;;;;5032073;28;20243;-87
2021/01/26 01:15:18;;;;;;;20.50;12.43;;;;;;;;;;5031707;28;20705;-87
2021/01/26 01:17:44;;;;;;;19.40;11.90;;;;;;;;;;5031919;28;20271;-87
2021/01/26 01:20:10;;;;;;;21.27;12.67;;;;;;;;;;5031679;28;20294;-86
2021/01/26 01:22:36;;;;;;;21.80;13.50;;;;;;;;;;5031979;28;20221;-86
2021/01/26 01:25:01;;;;;;;18.67;13.03;;;;;;;;;;5033854;28;20568;-86
2021/01/26 01:27:27;;;;;;;21.53;12.87;;;;;;;;;;5050678;28;20210;-86
2021/01/26 01:29:52;;;;;;;20.60;12.97;;;;;;;;;;5051269;28;20167;-86
2021/01/26 01:32:17;;;;;;;20.27;12.50;;;;;;;;;;5051767;28;20172;-86
2021/01/26 01:34:43;;;;;;;20.73;12.57;;;;;;;;;;5051564;28;20246;-86
2021/01/26 01:37:08;;;;;;;20.07;12.73;;;;;;;;;;5051491;28;20269;-87
2021/01/26 01:39:33;;;;;;;21.67;13.73;;;;;;;;;;5051144;28;20207;-87
2021/01/26 01:41:59;;;;;;;23.03;14.30;;;;;;;;;;5051073;28;20171;-87
2021/01/26 01:44:25;;;;;;;23.73;12.53;;;;;;;;;;5051461;28;20175;-86
2021/01/26 01:46:52;;;;;;;21.30;14.23;;;;;;;;;;5051050;28;20643;-86
2021/01/26 01:49:21;;;;;;;20.83;12.97;;;;;;;;;;5050997;28;20176;-85
2021/01/26 01:51:46;;;;;;;21.07;13.90;;;;;;;;;;5051561;28;20182;-86
2021/01/26 01:54:20;;;;;;;24.40;14.03;;;;;;;;;;5051834;28;20176;-86
2021/01/26 01:57:09;;;;;;;27.10;14.43;;;;;;;;;;5051823;28;20179;-86
2021/01/26 01:59:39;;;;;;;25.33;14.17;;;;;;;;;;5052232;28;20344;-86
2021/01/26 02:02:05;;;;;;;20.60;13.53;;;;;;;;;;5052178;28;20176;-86
2021/01/26 02:04:31;;;;;;;21.97;14.03;;;;;;;;;;5051846;28;20539;-86
2021/01/26 02:06:57;;;;;;;24.53;14.57;;;;;;;;;;5052017;28;20270;-86
2021/01/26 02:09:27;;;;;;;24.30;13.57;;;;;;;;;;5055430;28;20199;-87
2021/01/26 02:11:52;;;;;;;21.70;14.00;;;;;;;;;;5055705;28;20179;-87
2021/01/26 02:14:18;;;;;;;21.83;14.07;;;;;;;;;;5055819;28;20564;-87
2021/01/26 02:16:52;;;;;;;23.47;14.30;;;;;;;;;;5055551;28;20636;-87
2021/01/26 02:19:29;;;;;;;22.37;15.00;;;;;;;;;;5055820;28;20202;-87
2021/01/26 02:21:54;;;;;;;23.27;14.20;;;;;;;;;;5055696;28;20254;-87
2021/01/26 02:24:25;;;;;;;24.20;15.27;;;;;;;;;;5055478;28;20338;-87
2021/01/26 02:26:59;;;;;;;21.30;14.00;;;;;;;;;;5055556;28;20156;-87
2021/01/26 02:29:28;;;;;;;22.37;13.83;;;;;;;;;;5055411;28;20197;-87
2021/01/26 02:32:12;;;;;;;21.40;14.13;;;;;;;;;;5037700;28;20176;-88
2021/01/26 02:34:38;;;;;;;26.10;14.73;;;;;;;;;;5037536;28;20176;-88
2021/01/26 02:37:19;;;;;;;21.20;13.53;;;;;;;;;;5055448;28;20168;-87
2021/01/26 02:39:44;;;;;;;21.40;13.97;;;;;;;;;;5055280;28;20203;-87
2021/01/26 02:42:23;;;;;;;23.13;14.37;;;;;;;;;;5055238;28;20175;-87
2021/01/26 02:45:00;;;;;;;20.80;13.50;;;;;;;;;;5055428;28;20164;-86
2021/01/26 02:47:31;;;;;;;22.20;13.87;;;;;;;;;;5055373;28;20620;-86
2021/01/26 02:50:06;;;;;;;21.97;13.97;;;;;;;;;;5055020;28;20172;-87
2021/01/26 02:52:36;;;;;;;25.10;13.20;;;;;;;;;;5055241;28;20237;-87
2021/01/26 02:55:25;;;;;;;24.47;14.03;;;;;;;;;;5054827;28;20170;-87
2021/01/26 02:57:52;;;;;;;22.93;13.33;;;;;;;;;;5044107;28;20742;-86
2021/01/26 03:00:22;;;;;;;20.20;13.10;;;;;;;;;;5054814;28;20540;-87
2021/01/26 03:03:03;;;;;;;19.67;12.87;;;;;;;;;;5054692;28;20251;-87
2021/01/26 03:05:30;;;;;;;20.33;12.53;;;;;;;;;;5055068;28;20210;-88
2021/01/26 03:07:57;;;;;;;19.70;12.87;;;;;;;;;;5055147;28;20207;-87
2021/01/26 03:10:24;;;;;;;18.13;11.93;;;;;;;;;;5054600;28;20222;-87
2021/01/26 03:12:57;;;;;;;19.23;12.47;;;;;;;;;;5054954;28;20190;-87
2021/01/26 03:15:33;;;;;;;19.40;12.17;;;;;;;;;;5054907;28;20168;-87
2021/01/26 03:18:06;;;;;;;19.23;12.27;;;;;;;;;;5054638;28;20159;-88
2021/01/26 03:20:35;;;;;;;20.20;12.47;;;;;;;;;;5054365;28;20200;-87
2021/01/26 03:23:06;;;;;;;22.30;13.90;;;;;;;;;;5054421;28;20251;-86
2021/01/26 03:25:33;;;;;;;19.73;13.03;;;;;;;;;;5054428;28;20191;-87
2021/01/26 03:28:00;;;;;;;24.40;14.17;;;;;;;;;;5054664;28;20636;-87
2021/01/26 03:30:31;;;;;;;20.83;13.30;;;;;;;;;;5036701;28;20176;-86
2021/01/26 03:33:01;;;;;;;21.03;13.40;;;;;;;;;;5054605;28;20311;-87
2021/01/26 03:35:27;;;;;;;19.10;12.07;;;;;;;;;;5054791;28;20180;-87
2021/01/26 03:37:57;;;;;;;20.67;13.60;;;;;;;;;;5054219;28;20168;-87
2021/01/26 03:40:22;;;;;;;18.00;11.93;;;;;;;;;;5053993;28;20196;-86
2021/01/26 03:42:48;;;;;;;21.23;13.17;;;;;;;;;;5054181;28;20172;-87
2021/01/26 03:45:13;;;;;;;19.40;13.13;;;;;;;;;;5054029;28;20178;-87
2021/01/26 03:47:43;;;;;;;20.13;13.20;;;;;;;;;;5053769;28;20191;-87
2021/01/26 03:50:23;;;;;;;20.20;13.00;;;;;;;;;;5053954;28;20266;-87
2021/01/26 03:53:06;;;;;;;21.07;13.27;;;;;;;;;;5053815;28;20596;-86
2021/01/26 03:55:31;;;;;;;20.43;13.30;;;;;;;;;;5053994;28;20243;-86
2021/01/26 03:58:00;;;;;;;20.40;13.33;;;;;;;;;;5053879;28;20258;-87
2021/01/26 04:00:30;;;;;;;19.80;12.97;;;;;;;;;;5054096;28;20660;-86
2021/01/26 04:03:08;;;;;;;19.63;12.70;;;;;;;;;;5053941;28;20175;-87
2021/01/26 04:05:36;;;;;;;19.57;12.40;;;;;;;;;;5053482;28;20163;-87
2021/01/26 04:08:04;;;;;;;22.00;14.53;;;;;;;;;;5053746;28;20172;-87
2021/01/26 04:10:30;;;;;;;19.33;13.13;;;;;;;;;;5054074;28;20192;-86
2021/01/26 04:12:58;;;;;;;20.50;13.37;;;;;;;;;;5053537;28;20168;-86
2021/01/26 04:15:29;;;;;;;19.73;12.40;;;;;;;;;;5053178;28;20167;-86
2021/01/26 04:17:55;;;;;;;19.20;12.17;;;;;;;;;;5053525;28;20178;-86
2021/01/26 04:20:22;;;;;;;20.63;13.77;;;;;;;;;;5053178;28;20290;-86
2021/01/26 04:22:55;;;;;;;24.00;13.80;;;;;;;;;;5053133;28;20195;-86
2021/01/26 04:25:40;;;;;;;20.70;12.63;;;;;;;;;;5053352;28;20156;-86
2021/01/26 04:28:07;;;;;;;19.03;12.70;;;;;;;;;;5034722;28;20294;-86
2021/01/26 04:30:32;;;;;;;20.13;12.87;;;;;;;;;;5052492;28;20258;-87
2021/01/26 04:33:03;;;;;;;20.50;12.83;;;;;;;;;;5053674;28;20200;-86
2021/01/26 04:35:29;;;;;;;23.10;14.03;;;;;;;;;;5053518;28;20176;-87
2021/01/26 04:37:54;;;;;;;20.93;12.80;;;;;;;;;;5052967;28;20179;-87
2021/01/26 04:40:20;;;;;;;21.60;12.80;;;;;;;;;;5052781;28;20595;-87
2021/01/26 04:42:47;;;;;;;18.53;12.40;;;;;;;;;;5052837;28;20195;-87
2021/01/26 04:45:16;;;;;;;18.10;12.40;;;;;;;;;;5052706;28;20261;-87
2021/01/26 04:47:50;;;;;;;20.80;13.10;;;;;;;;;;5052620;28;20187;-87
2021/01/26 04:50:15;;;;;;;19.13;12.47;;;;;;;;;;5052656;28;20500;-87
2021/01/26 04:52:52;;;;;;;22.27;14.13;;;;;;;;;;5052628;28;20251;-87
2021/01/26 04:55:20;;;;;;;22.20;13.97;;;;;;;;;;5052586;28;20252;-87
2021/01/26 04:57:49;;;;;;;24.60;14.63;;;;;;;;;;5034922;28;20172;-87
2021/01/26 05:00:30;;;;;;;23.73;13.97;;;;;;;;;;5052354;28;20207;-87
2021/01/26 05:03:07;;;;;;;21.17;13.33;;;;;;;;;;5052487;28;20156;-87
2021/01/26 05:05:34;;;;;;;21.07;13.93;;;;;;;;;;5053336;28;20159;-86
2021/01/26 05:08:02;;;;;;;21.70;13.47;;;;;;;;;;5052642;28;20168;-86
2021/01/26 05:10:33;;;;;;;22.13;13.40;;;;;;;;;;5052188;28;20196;-86
2021/01/26 05:13:02;;;;;;;21.97;14.00;;;;;;;;;;5052369;28;20202;-86
2021/01/26 05:15:29;;;;;;;23.60;15.60;;;;;;;;;;5034738;28;20545;-87
2021/01/26 05:18:06;;;;;;;28.13;16.97;;;;;;;;;;5053020;28;20666;-87
2021/01/26 05:20:40;;;;;;;24.87;14.53;;;;;;;;;;5052970;28;20234;-87
2021/01/26 05:23:20;;;;;;;22.83;14.17;;;;;;;;;;5052406;28;20223;-88
2021/01/26 05:25:46;;;;;;;23.47;14.67;;;;;;;;;;5052602;28;20160;-87
2021/01/26 05:28:11;;;;;;;24.30;16.13;;;;;;;;;;5034648;28;20179;-87
2021/01/26 05:30:38;;;;;;;23.70;14.90;;;;;;;;;;5052493;28;20230;-87
2021/01/26 05:33:05;;;;;;;23.27;15.63;;;;;;;;;;5052950;28;20168;-87
2021/01/26 05:35:31;;;;;;;24.80;15.60;;;;;;;;;;5052056;28;20271;-87
2021/01/26 05:37:56;;;;;;;23.13;14.83;;;;;;;;;;5052105;28;20171;-87
2021/01/26 05:40:21;;;;;;;25.50;15.17;;;;;;;;;;5052049;28;20566;-87
2021/01/26 05:43:06;;;;;;;25.93;15.33;;;;;;;;;;5055010;28;20539;-88
2021/01/26 05:45:33;;;;;;;32.27;17.90;;;;;;;;;;5038071;28;20187;-87
2021/01/26 05:47:59;;;;;;;35.07;18.53;;;;;;;;;;5056218;28;20582;-87
2021/01/26 05:50:27;;;;;;;32.53;17.80;;;;;;;;;;5056279;28;20206;-88
2021/01/26 05:52:53;;;;;;;35.47;17.83;;;;;;;;;;5056224;28;20210;-87
2021/01/26 05:55:21;;;;;;;28.80;16.37;;;;;;;;;;5055984;28;20171;-87
2021/01/26 05:57:48;;;;;;;27.63;16.70;;;;;;;;;;5056094;28;20179;-87
2021/01/26 06:00:27;;;;;;;28.80;17.60;;;;;;;;;;5055710;28;20598;-87
2021/01/26 06:03:16;;;;;;;32.07;16.83;;;;;;;;;;5055763;28;20225;-87
2021/01/26 06:05:41;;;;;;;29.67;16.53;;;;;;;;;;5038175;28;20179;-87
2021/01/26 06:08:09;;;;;;;29.70;17.03;;;;;;;;;;5056206;28;20225;-87
2021/01/26 06:10:35;;;;;;;28.67;16.67;;;;;;;;;;5055861;28;20191;-87
2021/01/26 06:13:02;;;;;;;25.17;15.47;;;;;;;;;;5055634;28;20539;-87
2021/01/26 06:15:28;;;;;;;26.87;17.33;;;;;;;;;;5037932;28;20225;-87
2021/01/26 06:18:09;;;;;;;29.93;18.23;;;;;;;;;;5055414;28;20172;-87
2021/01/26 06:20:35;;;;;;;30.23;18.97;;;;;;;;;;5055387;28;20557;-87
2021/01/26 06:23:10;;;;;;;29.80;17.50;;;;;;;;;;5055214;28;20687;-87
2021/01/26 06:25:36;;;;;;;24.17;15.70;;;;;;;;;;5055482;28;20262;-87
2021/01/26 06:28:04;;;;;;;50.60;28.03;;;;;;;;;;5055307;28;21110;-86
2021/01/26 06:30:35;;;;;;;29.60;17.57;;;;;;;;;;5055648;28;20176;-87
2021/01/26 06:33:19;;;;;;;33.07;19.47;;;;;;;;;;5055528;28;20180;-87
2021/01/26 06:35:52;;;;;;;51.27;28.23;;;;;;;;;;5055456;28;20167;-88
2021/01/26 06:38:18;;;;;;;30.93;17.73;;;;;;;;;;5055492;28;20247;-88
2021/01/26 06:40:47;;;;;;;43.40;22.33;;;;;;;;;;5055232;28;20294;-87
2021/01/26 06:43:12;;;;;;;32.13;17.17;;;;;;;;;;5055628;28;20182;-87
2021/01/26 06:45:56;;;;;;;28.77;17.07;;;;;;;;;;5054959;28;20254;-88
2021/01/26 06:48:28;;;;;;;27.90;16.87;;;;;;;;;;5054938;28;20164;-87
2021/01/26 06:51:15;;;;;;;30.83;17.53;;;;;;;;;;5029016;28;20189;-87
2021/01/26 06:53:49;;;;;;;32.13;17.40;;;;;;;;;;5034331;28;20184;-87
2021/01/26 06:56:18;;;;;;;31.33;18.00;;;;;;;;;;5034896;28;20164;-86
2021/01/26 06:59:02;;;;;;;30.57;17.70;;;;;;;;;;5029389;28;20262;-87
2021/01/26 07:01:45;;;;;;;29.33;16.77;;;;;;;;;;5055416;28;20257;-87
2021/01/26 07:04:29;;;;;;;29.83;16.90;;;;;;;;;;5037591;28;20213;-88
2021/01/26 07:07:21;;;;;;;30.43;18.70;;;;;;;;;;5056007;28;20302;-87
2021/01/26 07:09:57;;;;;;;31.87;20.03;;;;;;;;;;5059328;28;20200;-88
2021/01/26 07:12:34;;;;;;;45.30;23.10;;;;;;;;;;5055015;28;20187;-88
2021/01/26 07:15:09;;;;;;;33.60;19.13;;;;;;;;;;5055415;28;20171;-88
2021/01/26 07:17:53;;;;;;;29.10;18.27;;;;;;;;;;5037602;28;20179;-88
2021/01/26 07:20:21;;;;;;;35.93;20.57;;;;;;;;;;5037266;28;20698;-88
2021/01/26 07:22:55;;;;;;;28.97;18.43;;;;;;;;;;5055464;28;20196;-88
2021/01/26 07:25:22;;;;;;;41.40;23.60;;;;;;;;;;5055585;28;20258;-89
2021/01/26 07:28:06;;;;;;;31.20;17.87;;;;;;;;;;5054573;28;20187;-88
2021/01/26 07:30:37;;;;;;;33.33;19.53;;;;;;;;;;5055139;28;20175;-88
2021/01/26 07:33:23;;;;;;;33.83;20.70;;;;;;;;;;5055075;28;20182;-88
2021/01/26 07:35:51;;;;;;;31.60;18.83;;;;;;;;;;5055291;28;20194;-87
2021/01/26 07:38:36;;;;;;;31.23;19.00;;;;;;;;;;5036908;28;20192;-88
2021/01/26 07:41:09;;;;;;;34.83;20.23;;;;;;;;;;5036947;28;20222;-87
2021/01/26 07:43:40;;;;;;;33.17;19.90;;;;;;;;;;5055126;28;20202;-87
2021/01/26 07:46:15;;;;;;;40.90;22.13;;;;;;;;;;5054647;28;20182;-88
2021/01/26 07:48:46;;;;;;;73.70;32.83;;;;;;;;;;5054907;28;20164;-88
2021/01/26 07:51:17;;;;;;;50.30;31.07;;;;;;;;;;5055074;28;20167;-88
2021/01/26 07:53:58;;;;;;;37.17;22.17;;;;;;;;;;5037174;28;20254;-88
2021/01/26 07:56:37;;;;;;;48.90;28.30;;;;;;;;;;5054653;28;20168;-87
2021/01/26 07:59:04;;;;;;;36.10;22.40;;;;;;;;;;5034694;28;20270;-87
2021/01/26 08:01:35;;;;;;;34.57;19.77;;;;;;;;;;5053848;28;20168;-88
2021/01/26 08:04:02;;;;;;;32.67;19.67;;;;;;;;;;5054571;28;20201;-87
2021/01/26 08:06:55;;;;;;;35.30;19.73;;;;;;;;;;5054371;28;20254;-88
2021/01/26 08:09:35;;;;;;;33.23;20.03;;;;;;;;;;5051074;28;20191;-88
2021/01/26 08:12:08;;;;;;;39.17;20.90;;;;;;;;;;5036748;28;20172;-89
2021/01/26 08:14:43;;;;;;;33.73;20.87;;;;;;;;;;5036829;28;20266;-89
2021/01/26 08:17:14;;;;;;;44.57;24.20;;;;;;;;;;5054304;28;20174;-88
2021/01/26 08:19:44;;;;;;;32.77;19.80;;;;;;;;;;5054326;28;20199;-87
2021/01/26 08:22:19;;;;;;;37.13;20.60;;;;;;;;;;5053140;28;20282;-88
2021/01/26 08:24:45;;;;;;;32.73;18.73;;;;;;;;;;5054453;28;20721;-87
2021/01/26 08:27:31;;;;;;;33.70;19.47;;;;;;;;;;5054474;28;20512;-87
2021/01/26 08:29:59;;;;;;;45.40;24.60;;;;;;;;;;5054769;28;20179;-86
2021/01/26 08:32:30;;;;;;;30.83;18.70;;;;;;;;;;5036472;28;20168;-86
2021/01/26 08:35:01;;;;;;;45.43;24.17;;;;;;;;;;5054032;28;20218;-85
2021/01/26 08:37:42;;;;;;;33.83;19.70;;;;;;;;;;5054222;28;20167;-87
2021/01/26 08:40:08;;;;;;;38.67;21.30;;;;;;;;;;5054068;28;20211;-86
2021/01/26 08:42:42;;;;;;;45.20;23.80;;;;;;;;;;5053877;28;20693;-87
2021/01/26 08:45:08;;;;;;;37.83;22.07;;;;;;;;;;5054105;28;20173;-87
2021/01/26 08:47:42;;;;;;;33.30;19.93;;;;;;;;;;5054356;28;20167;-87
2021/01/26 08:50:16;;;;;;;30.30;19.00;;;;;;;;;;5053405;28;20178;-87
2021/01/26 08:52:41;;;;;;;40.50;23.27;;;;;;;;;;5054097;28;20182;-87
2021/01/26 08:55:07;;;;;;;34.90;21.37;;;;;;;;;;5036039;28;20179;-87
2021/01/26 08:57:32;;;;;;;41.13;23.53;;;;;;;;;;5053714;28;20174;-87
2021/01/26 09:00:17;;;;;;;24.17;15.30;;;;;;;;;;5053496;28;20601;-86
2021/01/26 09:02:45;;;;;;;33.73;22.27;;;;;;;;;;5051879;28;20179;-86
2021/01/26 09:05:11;;;;;;;31.07;20.03;;;;;;;;;;5053132;28;20636;-87
2021/01/26 09:07:45;;;;;;;31.83;18.17;;;;;;;;;;5053561;28;20197;-88
2021/01/26 09:10:20;;;;;;;32.27;19.97;;;;;;;;;;5053303;28;20188;-87
2021/01/26 09:12:47;;;;;;;32.40;20.93;;;;;;;;;;5053709;28;20635;-87
2021/01/26 09:15:14;;;;;;;29.50;18.07;;;;;;;;;;5053242;28;20230;-87
2021/01/26 09:17:40;;;;;;;23.63;15.77;;;;;;;;;;5052926;28;20172;-87
2021/01/26 09:20:05;;;;;;;40.63;24.47;;;;;;;;;;5053240;28;20682;-87
2021/01/26 09:22:31;;;;;;;45.93;26.10;;;;;;;;;;5053483;28;20199;-87
2021/01/26 09:24:59;;;;;;;43.20;23.47;;;;;;;;;;5053106;28;20230;-88
2021/01/26 09:27:26;;;;;;;37.37;21.37;;;;;;;;;;5035645;28;20176;-88
2021/01/26 09:30:10;;;;;;;30.93;18.40;;;;;;;;;;5053700;28;20182;-87
2021/01/26 09:32:36;;;;;;;27.47;17.00;;;;;;;;;;5053698;28;20528;-87
2021/01/26 09:35:09;;;;;;;33.50;19.63;;;;;;;;;;5053413;28;20172;-87
2021/01/26 09:37:34;;;;;;;27.70;16.73;;;;;;;;;;5051905;28;20180;-86
2021/01/26 09:40:08;;;;;;;26.33;15.73;;;;;;;;;;5053382;28;20206;-87
2021/01/26 09:42:34;;;;;;;29.17;16.67;;;;;;;;;;5052518;28;20175;-86
2021/01/26 09:45:02;;;;;;;29.43;16.93;;;;;;;;;;5052733;28;20176;-86
2021/01/26 09:47:28;;;;;;;26.70;16.87;;;;;;;;;;5052971;28;20617;-86
2021/01/26 09:50:12;;;;;;;25.00;15.53;;;;;;;;;;5053021;28;20223;-86
2021/01/26 09:52:38;;;;;;;31.10;18.40;;;;;;;;;;5051432;28;20184;-87
2021/01/26 09:55:12;;;;;;;27.03;16.03;;;;;;;;;;5052210;28;20186;-86
2021/01/26 09:57:38;;;;;;;25.87;16.20;;;;;;;;;;5032535;28;20180;-86
2021/01/26 10:00:11;;;;;;;27.53;16.80;;;;;;;;;;5037744;28;20215;-86
2021/01/26 10:02:37;;;;;;;24.00;14.93;;;;;;;;;;5040970;28;20188;-86
2021/01/26 10:05:02;;;;;;;29.67;19.63;;;;;;;;;;5031719;28;20173;-86
2021/01/26 10:07:28;;;;;;;32.27;18.83;;;;;;;;;;5032479;28;20183;-86
2021/01/26 10:10:09;;;;;;;26.93;16.53;;;;;;;;;;5048562;28;20199;-86
2021/01/26 10:12:37;;;;;;;24.27;14.93;;;;;;;;;;5046512;28;20183;-85
2021/01/26 10:15:07;;;;;;;25.53;15.73;;;;;;;;;;5032042;28;20183;-86
2021/01/26 10:17:39;;;;;;;27.80;17.20;;;;;;;;;;5032094;28;20172;-86
2021/01/26 10:20:04;;;;;;;25.27;15.70;;;;;;;;;;5045131;28;20295;-86
2021/01/26 10:22:30;;;;;;;25.90;16.37;;;;;;;;;;5052628;28;20255;-86
2021/01/26 10:25:04;;;;;;;25.77;16.07;;;;;;;;;;5051812;28;20230;-86
2021/01/26 10:27:29;;;;;;;23.10;15.27;;;;;;;;;;5032344;28;20247;-86
2021/01/26 10:30:07;;;;;;;25.17;16.77;;;;;;;;;;5035069;28;20316;-87
2021/01/26 10:32:40;;;;;;;24.43;15.70;;;;;;;;;;5035530;28;20172;-86
2021/01/26 10:35:21;;;;;;;23.23;15.40;;;;;;;;;;5036056;28;20178;-85
2021/01/26 10:37:46;;;;;;;24.83;15.73;;;;;;;;;;5035964;28;20175;-86
2021/01/26 10:40:11;;;;;;;29.27;18.10;;;;;;;;;;5035577;28;20557;-86
2021/01/26 10:42:38;;;;;;;27.73;17.57;;;;;;;;;;5035419;28;20188;-85
2021/01/26 10:45:03;;;;;;;28.63;17.23;;;;;;;;;;5035212;28;20169;-85
2021/01/26 10:47:34;;;;;;;28.33;16.50;;;;;;;;;;5035342;28;20181;-86
2021/01/26 10:50:11;;;;;;;31.50;18.97;;;;;;;;;;5035329;28;20513;-86
2021/01/26 10:52:36;;;;;;;30.33;18.47;;;;;;;;;;5035719;28;20165;-86
2021/01/26 10:55:01;;;;;;;34.03;20.03;;;;;;;;;;5035376;28;20172;-86
2021/01/26 10:57:27;;;;;;;29.33;18.27;;;;;;;;;;5048188;28;20183;-86
2021/01/26 10:59:52;;;;;;;26.83;17.60;;;;;;;;;;5054196;28;20249;-86
2021/01/26 11:02:17;;;;;;;28.53;19.03;;;;;;;;;;5054483;28;20176;-86
2021/01/26 11:04:43;;;;;;;35.30;20.87;;;;;;;;;;5036917;28;20192;-85
2021/01/26 11:07:08;;;;;;;30.43;18.20;;;;;;;;;;5037125;28;20221;-86
2021/01/26 11:09:33;;;;;;;27.13;18.13;;;;;;;;;;5055156;28;20176;-86
2021/01/26 11:11:59;;;;;;;30.83;19.23;;;;;;;;;;5035864;28;20175;-86
2021/01/26 11:14:24;;;;;;;31.67;20.10;;;;;;;;;;5035288;28;20184;-87
2021/01/26 11:16:49;;;;;;;36.10;19.63;;;;;;;;;;5054512;28;20203;-86
2021/01/26 11:19:15;;;;;;;29.43;18.37;;;;;;;;;;5036776;28;20290;-87
2021/01/26 11:21:40;;;;;;;42.37;22.90;;;;;;;;;;5054546;28;20640;-86
2021/01/26 11:24:06;;;;;;;30.40;20.23;;;;;;;;;;5054256;28;20224;-87
2021/01/26 11:26:31;;;;;;;28.70;19.97;;;;;;;;;;5054563;28;20221;-86
2021/01/26 11:28:57;;;;;;;29.53;18.87;;;;;;;;;;5054550;28;20171;-87
2021/01/26 11:31:22;;;;;;;28.97;19.10;;;;;;;;;;5054218;28;20175;-86
2021/01/26 11:33:48;;;;;;;29.80;18.73;;;;;;;;;;5036409;28;20267;-86
2021/01/26 11:36:13;;;;;;;27.20;19.23;;;;;;;;;;5046211;28;20192;-86
2021/01/26 11:38:39;;;;;;;32.90;20.83;;;;;;;;;;5034661;28;20522;-86
2021/01/26 11:41:04;;;;;;;31.03;20.07;;;;;;;;;;5043240;28;20203;-86
2021/01/26 11:43:31;;;;;;;34.40;22.73;;;;;;;;;;5053933;28;20163;-86
2021/01/26 11:45:56;;;;;;;29.77;19.33;;;;;;;;;;5053969;28;20187;-86
2021/01/26 11:48:22;;;;;;;28.33;18.87;;;;;;;;;;5036307;28;20534;-87
2021/01/26 11:50:47;;;;;;;29.20;18.60;;;;;;;;;;5053986;28;20180;-87
2021/01/26 11:53:14;;;;;;;25.67;17.60;;;;;;;;;;5053955;28;20198;-87
2021/01/26 11:55:40;;;;;;;34.87;21.57;;;;;;;;;;5053651;28;20187;-87
2021/01/26 11:58:05;;;;;;;34.30;21.93;;;;;;;;;;5054466;28;20206;-86
2021/01/26 12:00:32;;;;;;;32.10;19.53;;;;;;;;;;5054068;28;20199;-87
2021/01/26 12:02:58;;;;;;;35.47;20.67;;;;;;;;;;5053953;28;20190;-86
2021/01/26 12:05:25;;;;;;;33.30;20.93;;;;;;;;;;5053590;28;20203;-86
2021/01/26 12:07:50;;;;;;;31.03;20.27;;;;;;;;;;5052660;28;20626;-87
2021/01/26 12:10:16;;;;;;;33.47;21.17;;;;;;;;;;5052419;28;20276;-87
2021/01/26 12:12:42;;;;;;;30.07;19.13;;;;;;;;;;5053666;28;20163;-87
2021/01/26 12:15:09;;;;;;;28.80;18.47;;;;;;;;;;5033818;28;20165;-86
2021/01/26 12:17:34;;;;;;;28.60;19.83;;;;;;;;;;5033211;28;20720;-86
2021/01/26 12:20:01;;;;;;;28.63;18.77;;;;;;;;;;5037025;28;20283;-86
2021/01/26 12:22:26;;;;;;;33.43;21.37;;;;;;;;;;5035634;28;20176;-88
2021/01/26 12:24:52;;;;;;;30.10;18.93;;;;;;;;;;5053610;28;20613;-86
2021/01/26 12:27:17;;;;;;;26.73;18.53;;;;;;;;;;5051560;28;20180;-86
2021/01/26 12:29:42;;;;;;;24.87;16.87;;;;;;;;;;5052394;28;20180;-87
2021/01/26 12:32:08;;;;;;;22.30;13.17;;;;;;;;;;5053421;28;20164;-87
2021/01/26 12:34:33;;;;;;;17.67;12.43;;;;;;;;;;5053303;28;20305;-87
2021/01/26 12:37:00;;;;;;;22.03;13.80;;;;;;;;;;5053278;28;20171;-86
2021/01/26 12:39:25;;;;;;;20.10;13.20;;;;;;;;;;5053600;28;20199;-87
2021/01/26 12:41:50;;;;;;;22.90;14.90;;;;;;;;;;5053133;28;20170;-87
2021/01/26 12:44:16;;;;;;;31.03;17.30;;;;;;;;;;5053464;28;20168;-86
2021/01/26 12:46:42;;;;;;;37.23;19.07;;;;;;;;;;5053195;28;20204;-87
2021/01/26 12:49:08;;;;;;;24.30;16.33;;;;;;;;;;5053160;28;20260;-87
2021/01/26 12:51:33;;;;;;;24.30;15.37;;;;;;;;;;5051905;28;20256;-86
2021/01/26 12:53:58;;;;;;;22.40;14.57;;;;;;;;;;5053238;28;20180;-87
2021/01/26 12:56:23;;;;;;;21.10;14.70;;;;;;;;;;5052877;28;20168;-86
2021/01/26 12:58:49;;;;;;;22.20;15.37;;;;;;;;;;5035116;28;20175;-87
2021/01/26 13:01:15;;;;;;;24.27;16.07;;;;;;;;;;5035173;28;20587;-87
2021/01/26 13:03:40;;;;;;;23.60;16.07;;;;;;;;;;5035099;28;20176;-87
2021/01/26 13:06:06;;;;;;;25.07;16.60;;;;;;;;;;5052381;28;20165;-88
2021/01/26 13:08:31;;;;;;;22.07;13.27;;;;;;;;;;5033717;28;20196;-88
2021/01/26 13:10:56;;;;;;;19.33;13.03;;;;;;;;;;5052425;28;20217;-88
2021/01/26 13:13:22;;;;;;;18.40;12.20;;;;;;;;;;5052680;28;20172;-87
2021/01/26 13:15:47;;;;;;;20.10;13.50;;;;;;;;;;5052700;28;20172;-87
2021/01/26 13:18:13;;;;;;;18.63;12.33;;;;;;;;;;5052567;28;20179;-87
2021/01/26 13:20:39;;;;;;;22.30;15.13;;;;;;;;;;5052472;28;20203;-87
2021/01/26 13:23:05;;;;;;;23.73;15.73;;;;;;;;;;5052422;28;20175;-87
2021/01/26 13:25:31;;;;;;;25.37;16.10;;;;;;;;;;5052538;28;20192;-87
2021/01/26 13:27:58;;;;;;;23.90;14.97;;;;;;;;;;5034058;28;20194;-87
2021/01/26 13:30:24;;;;;;;20.60;13.30;;;;;;;;;;5052412;28;20681;-87
2021/01/26 13:32:51;;;;;;;23.17;15.40;;;;;;;;;;5051989;28;20160;-87
2021/01/26 13:35:18;;;;;;;21.47;14.30;;;;;;;;;;5051589;28;20513;-87
2021/01/26 13:37:44;;;;;;;21.00;14.20;;;;;;;;;;5052622;28;20168;-87
2021/01/26 13:40:09;;;;;;;19.43;12.70;;;;;;;;;;5052578;28;20269;-87
2021/01/26 13:42:35;;;;;;;19.60;12.87;;;;;;;;;;5052870;28;20172;-87
2021/01/26 13:45:00;;;;;;;21.03;13.97;;;;;;;;;;5051451;28;20625;-88
2021/01/26 13:47:25;;;;;;;20.43;13.33;;;;;;;;;;5051669;28;20175;-88
2021/01/26 13:49:51;;;;;;;21.10;13.97;;;;;;;;;;5034113;28;20172;-88
2021/01/26 13:52:20;;;;;;;21.17;14.00;;;;;;;;;;5032224;28;20180;-89
2021/01/26 13:54:45;;;;;;;22.00;13.93;;;;;;;;;;5031993;28;20175;-88
2021/01/26 13:57:10;;;;;;;23.33;15.63;;;;;;;;;;5050878;28;20164;-88
2021/01/26 13:59:36;;;;;;;22.13;14.63;;;;;;;;;;5033380;28;20663;-88
2021/01/26 14:02:01;;;;;;;20.60;13.40;;;;;;;;;;5051062;28;20164;-88
2021/01/26 14:04:26;;;;;;;20.37;12.80;;;;;;;;;;5051795;28;20275;-89
2021/01/26 14:06:52;;;;;;;20.23;13.10;;;;;;;;;;5055204;28;20207;-88
2021/01/26 14:09:17;;;;;;;23.27;14.17;;;;;;;;;;5056042;28;20218;-88
2021/01/26 14:11:43;;;;;;;25.20;15.57;;;;;;;;;;5055478;28;20203;-89
2021/01/26 14:14:10;;;;;;;25.77;17.53;;;;;;;;;;5038112;28;20188;-88
2021/01/26 14:16:35;;;;;;;27.13;17.67;;;;;;;;;;5056238;28;20167;-88
2021/01/26 14:19:01;;;;;;;28.93;17.50;;;;;;;;;;5056106;28;20554;-88
2021/01/26 14:21:27;;;;;;;49.37;28.63;;;;;;;;;;5055693;28;20674;-88
2021/01/26 14:23:52;;;;;;;53.20;30.13;;;;;;;;;;5055867;28;20250;-88
2021/01/26 14:26:18;;;;;;;47.33;28.33;;;;;;;;;;5036118;28;20656;-89
2021/01/26 14:28:43;;;;;;;37.13;21.43;;;;;;;;;;5038175;28;20187;-88